sensor_id;sensor_type;location;lat;lon;timestamp;temperature;humidity
38265;DHT22;24062;47.480;8.768;2022-11-18T00:01:43;11.10;87.00
38265;DHT22;24062;47.480;8.768;2022-11-18T00:04:10;11.10;87.00
38265;DHT22;24062;47.480;8.768;2022-11-18T00:06:36;11.10;86.80
38265;DHT22;24062;47.480;8.768;2022-11-18T00:09:03;11.10;86.80
38265;DHT22;24062;47.480;8.768;2022-11-18T00:11:30;11.10;86.40
38265;DHT22;24062;47.480;8.768;2022-11-18T00:14:16;11.10;86.30
38265;DHT22;24062;47.480;8.768;2022-11-18T00:16:51;11.10;86.60
38265;DHT22;24062;47.480;8.768;2022-11-18T00:19:20;11.10;86.90
38265;DHT22;24062;47.480;8.768;2022-11-18T00:21:47;11.10;86.80
38265;DHT22;24062;47.480;8.768;2022-11-18T00:24:14;11.00;86.40
38265;DHT22;24062;47.480;8.768;2022-11-18T00:26:41;11.00;86.60
38265;DHT22;24062;47.480;8.768;2022-11-18T00:29:08;11.00;87.00
38265;DHT22;24062;47.480;8.768;2022-11-18T00:31:36;11.00;87.50
38265;DHT22;24062;47.480;8.768;2022-11-18T00:34:04;11.00;87.70
38265;DHT22;24062;47.480;8.768;2022-11-18T00:36:31;11.00;87.80
38265;DHT22;24062;47.480;8.768;2022-11-18T00:38:58;11.00;87.80
38265;DHT22;24062;47.480;8.768;2022-11-18T00:41:25;11.00;88.00
38265;DHT22;24062;47.480;8.768;2022-11-18T00:44:13;11.00;88.00
38265;DHT22;24062;47.480;8.768;2022-11-18T00:46:38;11.00;87.80
38265;DHT22;24062;47.480;8.768;2022-11-18T00:49:07;11.00;87.80
38265;DHT22;24062;47.480;8.768;2022-11-18T00:51:34;11.00;87.90
38265;DHT22;24062;47.480;8.768;2022-11-18T00:54:01;11.00;87.90
38265;DHT22;24062;47.480;8.768;2022-11-18T00:56:28;10.90;89.00
38265;DHT22;24062;47.480;8.768;2022-11-18T00:58:55;11.00;88.40
38265;DHT22;24062;47.480;8.768;2022-11-18T01:01:22;10.90;88.10
38265;DHT22;24062;47.480;8.768;2022-11-18T01:03:49;10.90;88.40
38265;DHT22;24062;47.480;8.768;2022-11-18T01:06:17;10.90;88.40
38265;DHT22;24062;47.480;8.768;2022-11-18T01:08:44;10.80;88.50
38265;DHT22;24062;47.480;8.768;2022-11-18T01:11:11;10.80;88.70
38265;DHT22;24062;47.480;8.768;2022-11-18T01:13:55;10.80;88.80
38265;DHT22;24062;47.480;8.768;2022-11-18T01:16:24;10.80;88.60
38265;DHT22;24062;47.480;8.768;2022-11-18T01:18:51;10.70;88.50
38265;DHT22;24062;47.480;8.768;2022-11-18T01:21:19;10.60;88.60
38265;DHT22;24062;47.480;8.768;2022-11-18T01:23:46;10.50;88.60
38265;DHT22;24062;47.480;8.768;2022-11-18T01:26:14;10.40;88.70
38265;DHT22;24062;47.480;8.768;2022-11-18T01:28:42;10.40;88.90
38265;DHT22;24062;47.480;8.768;2022-11-18T01:31:12;10.40;89.20
38265;DHT22;24062;47.480;8.768;2022-11-18T01:33:39;10.30;89.10
38265;DHT22;24062;47.480;8.768;2022-11-18T01:36:14;10.30;89.20
38265;DHT22;24062;47.480;8.768;2022-11-18T01:38:42;10.30;89.20
38265;DHT22;24062;47.480;8.768;2022-11-18T01:41:10;10.20;89.30
38265;DHT22;24062;47.480;8.768;2022-11-18T01:43:52;10.30;89.90
38265;DHT22;24062;47.480;8.768;2022-11-18T01:46:20;10.20;89.40
38265;DHT22;24062;47.480;8.768;2022-11-18T01:48:51;10.30;89.50
38265;DHT22;24062;47.480;8.768;2022-11-18T01:51:24;10.30;89.70
38265;DHT22;24062;47.480;8.768;2022-11-18T01:53:58;10.20;89.40
38265;DHT22;24062;47.480;8.768;2022-11-18T01:56:30;10.30;89.60
38265;DHT22;24062;47.480;8.768;2022-11-18T01:59:02;10.20;89.90
38265;DHT22;24062;47.480;8.768;2022-11-18T02:01:29;10.20;89.00
38265;DHT22;24062;47.480;8.768;2022-11-18T02:03:57;10.20;89.40
38265;DHT22;24062;47.480;8.768;2022-11-18T02:06:24;10.10;89.10
38265;DHT22;24062;47.480;8.768;2022-11-18T02:08:52;10.10;89.40
38265;DHT22;24062;47.480;8.768;2022-11-18T02:11:20;10.10;89.70
38265;DHT22;24062;47.480;8.768;2022-11-18T02:14:06;10.10;89.60
38265;DHT22;24062;47.480;8.768;2022-11-18T02:16:46;10.10;89.70
38265;DHT22;24062;47.480;8.768;2022-11-18T02:19:40;10.10;89.60
38265;DHT22;24062;47.480;8.768;2022-11-18T02:22:24;10.10;89.70
38265;DHT22;24062;47.480;8.768;2022-11-18T02:25:04;10.10;89.60
38265;DHT22;24062;47.480;8.768;2022-11-18T02:27:51;10.10;89.50
38265;DHT22;24062;47.480;8.768;2022-11-18T02:30:24;10.10;89.70
38265;DHT22;24062;47.480;8.768;2022-11-18T02:32:54;10.10;89.50
38265;DHT22;24062;47.480;8.768;2022-11-18T02:35:27;10.10;89.40
38265;DHT22;24062;47.480;8.768;2022-11-18T02:37:57;10.10;89.60
38265;DHT22;24062;47.480;8.768;2022-11-18T02:40:29;10.10;89.90
38265;DHT22;24062;47.480;8.768;2022-11-18T02:43:01;10.10;90.00
38265;DHT22;24062;47.480;8.768;2022-11-18T02:45:30;10.20;89.90
38265;DHT22;24062;47.480;8.768;2022-11-18T02:48:01;10.10;89.80
38265;DHT22;24062;47.480;8.768;2022-11-18T02:50:29;10.10;89.60
38265;DHT22;24062;47.480;8.768;2022-11-18T02:53:01;10.10;89.70
38265;DHT22;24062;47.480;8.768;2022-11-18T02:55:31;10.10;89.50
38265;DHT22;24062;47.480;8.768;2022-11-18T02:58:01;10.00;88.90
38265;DHT22;24062;47.480;8.768;2022-11-18T03:00:31;9.90;90.00
38265;DHT22;24062;47.480;8.768;2022-11-18T03:02:58;9.90;90.30
38265;DHT22;24062;47.480;8.768;2022-11-18T03:05:29;9.90;90.40
38265;DHT22;24062;47.480;8.768;2022-11-18T03:08:02;9.90;90.30
38265;DHT22;24062;47.480;8.768;2022-11-18T03:10:38;10.00;89.80
38265;DHT22;24062;47.480;8.768;2022-11-18T03:13:12;10.00;89.90
38265;DHT22;24062;47.480;8.768;2022-11-18T03:15:50;10.00;89.70
38265;DHT22;24062;47.480;8.768;2022-11-18T03:18:24;10.00;89.70
38265;DHT22;24062;47.480;8.768;2022-11-18T03:20:56;10.00;89.70
38265;DHT22;24062;47.480;8.768;2022-11-18T03:23:29;10.00;89.40
38265;DHT22;24062;47.480;8.768;2022-11-18T03:26:00;9.90;90.00
38265;DHT22;24062;47.480;8.768;2022-11-18T03:28:32;9.80;89.60
38265;DHT22;24062;47.480;8.768;2022-11-18T03:31:08;9.70;89.80
38265;DHT22;24062;47.480;8.768;2022-11-18T03:33:41;9.70;89.90
38265;DHT22;24062;47.480;8.768;2022-11-18T03:36:11;9.70;90.20
38265;DHT22;24062;47.480;8.768;2022-11-18T03:38:43;9.70;90.60
38265;DHT22;24062;47.480;8.768;2022-11-18T03:41:13;9.90;90.40
38265;DHT22;24062;47.480;8.768;2022-11-18T03:43:46;9.80;90.40
38265;DHT22;24062;47.480;8.768;2022-11-18T03:46:19;9.80;90.30
38265;DHT22;24062;47.480;8.768;2022-11-18T03:48:49;9.80;90.30
38265;DHT22;24062;47.480;8.768;2022-11-18T03:51:21;9.90;90.40
38265;DHT22;24062;47.480;8.768;2022-11-18T03:53:52;9.90;90.30
38265;DHT22;24062;47.480;8.768;2022-11-18T03:56:25;9.90;90.30
38265;DHT22;24062;47.480;8.768;2022-11-18T03:58:59;9.90;90.40
38265;DHT22;24062;47.480;8.768;2022-11-18T04:01:32;9.90;90.40
38265;DHT22;24062;47.480;8.768;2022-11-18T04:04:01;9.70;90.30
38265;DHT22;24062;47.480;8.768;2022-11-18T04:06:32;9.40;91.00
38265;DHT22;24062;47.480;8.768;2022-11-18T04:09:08;9.30;91.60
38265;DHT22;24062;47.480;8.768;2022-11-18T04:11:42;9.30;91.80
38265;DHT22;24062;47.480;8.768;2022-11-18T04:14:28;9.20;92.00
38265;DHT22;24062;47.480;8.768;2022-11-18T04:16:56;9.20;92.20
38265;DHT22;24062;47.480;8.768;2022-11-18T04:19:23;9.10;92.40
38265;DHT22;24062;47.480;8.768;2022-11-18T04:21:50;9.10;92.50
38265;DHT22;24062;47.480;8.768;2022-11-18T04:24:17;9.10;92.60
38265;DHT22;24062;47.480;8.768;2022-11-18T04:26:44;9.10;92.60
38265;DHT22;24062;47.480;8.768;2022-11-18T04:29:11;9.10;92.70
38265;DHT22;24062;47.480;8.768;2022-11-18T04:31:38;9.10;92.50
38265;DHT22;24062;47.480;8.768;2022-11-18T04:34:06;9.10;92.80
38265;DHT22;24062;47.480;8.768;2022-11-18T04:36:33;9.30;93.10
38265;DHT22;24062;47.480;8.768;2022-11-18T04:39:00;9.60;93.80
38265;DHT22;24062;47.480;8.768;2022-11-18T04:41:26;10.70;92.20
38265;DHT22;24062;47.480;8.768;2022-11-18T04:44:07;11.70;90.30
38265;DHT22;24062;47.480;8.768;2022-11-18T04:46:38;12.40;85.70
38265;DHT22;24062;47.480;8.768;2022-11-18T04:49:06;12.70;83.70
38265;DHT22;24062;47.480;8.768;2022-11-18T04:51:33;13.00;82.60
38265;DHT22;24062;47.480;8.768;2022-11-18T04:54:01;13.50;82.10
38265;DHT22;24062;47.480;8.768;2022-11-18T04:56:28;13.80;80.50
38265;DHT22;24062;47.480;8.768;2022-11-18T04:58:55;13.80;78.90
38265;DHT22;24062;47.480;8.768;2022-11-18T05:01:22;13.90;77.90
38265;DHT22;24062;47.480;8.768;2022-11-18T05:03:49;13.90;78.10
38265;DHT22;24062;47.480;8.768;2022-11-18T05:06:17;14.10;78.10
38265;DHT22;24062;47.480;8.768;2022-11-18T05:08:44;14.20;77.80
38265;DHT22;24062;47.480;8.768;2022-11-18T05:11:11;14.40;77.70
38265;DHT22;24062;47.480;8.768;2022-11-18T05:13:55;14.50;77.20
38265;DHT22;24062;47.480;8.768;2022-11-18T05:16:22;14.70;76.70
38265;DHT22;24062;47.480;8.768;2022-11-18T05:18:49;14.80;76.00
38265;DHT22;24062;47.480;8.768;2022-11-18T05:21:17;14.70;75.50
38265;DHT22;24062;47.480;8.768;2022-11-18T05:23:44;14.60;75.60
38265;DHT22;24062;47.480;8.768;2022-11-18T05:26:11;14.60;75.50
38265;DHT22;24062;47.480;8.768;2022-11-18T05:28:38;14.50;75.40
38265;DHT22;24062;47.480;8.768;2022-11-18T05:31:06;14.60;75.50
38265;DHT22;24062;47.480;8.768;2022-11-18T05:33:33;14.60;75.80
38265;DHT22;24062;47.480;8.768;2022-11-18T05:36:02;14.60;76.20
38265;DHT22;24062;47.480;8.768;2022-11-18T05:38:32;14.70;76.20
38265;DHT22;24062;47.480;8.768;2022-11-18T05:41:00;14.80;75.70
38265;DHT22;24062;47.480;8.768;2022-11-18T05:43:27;14.90;75.30
38265;DHT22;24062;47.480;8.768;2022-11-18T05:45:53;15.00;75.40
38265;DHT22;24062;47.480;8.768;2022-11-18T05:48:20;15.00;75.50
38265;DHT22;24062;47.480;8.768;2022-11-18T05:50:48;15.10;75.30
38265;DHT22;24062;47.480;8.768;2022-11-18T05:53:16;15.10;75.00
38265;DHT22;24062;47.480;8.768;2022-11-18T05:55:48;15.20;74.90
38265;DHT22;24062;47.480;8.768;2022-11-18T05:58:16;15.00;73.20
38265;DHT22;24062;47.480;8.768;2022-11-18T06:00:44;14.40;72.10
38265;DHT22;24062;47.480;8.768;2022-11-18T06:03:16;13.00;73.40
38265;DHT22;24062;47.480;8.768;2022-11-18T06:05:44;11.60;76.10
38265;DHT22;24062;47.480;8.768;2022-11-18T06:08:13;10.70;80.00
38265;DHT22;24062;47.480;8.768;2022-11-18T06:10:41;10.20;83.30
38265;DHT22;24062;47.480;8.768;2022-11-18T06:13:13;9.90;87.40
38265;DHT22;24062;47.480;8.768;2022-11-18T06:15:42;9.80;88.60
38265;DHT22;24062;47.480;8.768;2022-11-18T06:18:12;9.60;89.50
38265;DHT22;24062;47.480;8.768;2022-11-18T06:20:43;9.50;90.40
38265;DHT22;24062;47.480;8.768;2022-11-18T06:23:11;9.40;90.80
38265;DHT22;24062;47.480;8.768;2022-11-18T06:25:39;9.30;91.10
38265;DHT22;24062;47.480;8.768;2022-11-18T06:28:09;9.30;91.30
38265;DHT22;24062;47.480;8.768;2022-11-18T06:30:37;9.20;91.40
38265;DHT22;24062;47.480;8.768;2022-11-18T06:33:04;9.20;91.60
38265;DHT22;24062;47.480;8.768;2022-11-18T06:35:31;9.20;92.10
38265;DHT22;24062;47.480;8.768;2022-11-18T06:37:58;9.20;92.20
38265;DHT22;24062;47.480;8.768;2022-11-18T06:40:25;9.20;92.00
38265;DHT22;24062;47.480;8.768;2022-11-18T06:42:52;9.10;91.70
38265;DHT22;24062;47.480;8.768;2022-11-18T06:45:38;9.00;91.70
38265;DHT22;24062;47.480;8.768;2022-11-18T06:48:25;9.00;92.00
38265;DHT22;24062;47.480;8.768;2022-11-18T06:50:51;9.00;92.10
38265;DHT22;24062;47.480;8.768;2022-11-18T06:53:18;8.90;92.20
38265;DHT22;24062;47.480;8.768;2022-11-18T06:55:45;8.90;92.20
38265;DHT22;24062;47.480;8.768;2022-11-18T06:58:12;9.00;92.50
38265;DHT22;24062;47.480;8.768;2022-11-18T07:00:40;9.00;92.60
38265;DHT22;24062;47.480;8.768;2022-11-18T07:03:07;9.10;92.40
38265;DHT22;24062;47.480;8.768;2022-11-18T07:05:34;9.00;92.20
38265;DHT22;24062;47.480;8.768;2022-11-18T07:08:01;9.00;92.30
38265;DHT22;24062;47.480;8.768;2022-11-18T07:10:28;9.00;92.30
38265;DHT22;24062;47.480;8.768;2022-11-18T07:12:55;9.20;92.60
38265;DHT22;24062;47.480;8.768;2022-11-18T07:15:22;9.10;92.70
38265;DHT22;24062;47.480;8.768;2022-11-18T07:17:50;9.10;92.80
38265;DHT22;24062;47.480;8.768;2022-11-18T07:20:17;9.20;92.60
38265;DHT22;24062;47.480;8.768;2022-11-18T07:22:44;9.30;92.90
38265;DHT22;24062;47.480;8.768;2022-11-18T07:25:11;9.30;92.60
38265;DHT22;24062;47.480;8.768;2022-11-18T07:27:38;9.20;92.70
38265;DHT22;24062;47.480;8.768;2022-11-18T07:30:05;9.30;92.90
38265;DHT22;24062;47.480;8.768;2022-11-18T07:32:32;9.40;92.90
38265;DHT22;24062;47.480;8.768;2022-11-18T07:35:01;9.40;93.20
38265;DHT22;24062;47.480;8.768;2022-11-18T07:37:28;9.60;93.30
38265;DHT22;24062;47.480;8.768;2022-11-18T07:39:54;9.60;92.80
38265;DHT22;24062;47.480;8.768;2022-11-18T07:42:24;9.60;92.70
38265;DHT22;24062;47.480;8.768;2022-11-18T07:44:51;9.50;92.60
38265;DHT22;24062;47.480;8.768;2022-11-18T07:47:18;9.50;92.70
38265;DHT22;24062;47.480;8.768;2022-11-18T07:49:44;9.50;92.70
38265;DHT22;24062;47.480;8.768;2022-11-18T07:52:13;9.50;92.60
38265;DHT22;24062;47.480;8.768;2022-11-18T07:54:39;9.50;92.60
38265;DHT22;24062;47.480;8.768;2022-11-18T07:57:06;9.50;93.10
38265;DHT22;24062;47.480;8.768;2022-11-18T07:59:34;9.60;93.10
38265;DHT22;24062;47.480;8.768;2022-11-18T08:02:01;9.70;93.10
38265;DHT22;24062;47.480;8.768;2022-11-18T08:04:28;9.70;92.90
38265;DHT22;24062;47.480;8.768;2022-11-18T08:06:55;9.80;92.90
38265;DHT22;24062;47.480;8.768;2022-11-18T08:09:23;9.80;92.90
38265;DHT22;24062;47.480;8.768;2022-11-18T08:11:50;9.70;92.60
38265;DHT22;24062;47.480;8.768;2022-11-18T08:14:17;9.70;92.80
38265;DHT22;24062;47.480;8.768;2022-11-18T08:16:44;9.80;93.00
38265;DHT22;24062;47.480;8.768;2022-11-18T08:19:10;9.90;93.10
38265;DHT22;24062;47.480;8.768;2022-11-18T08:21:37;10.00;92.60
38265;DHT22;24062;47.480;8.768;2022-11-18T08:24:05;10.10;92.70
38265;DHT22;24062;47.480;8.768;2022-11-18T08:26:33;10.20;92.50
38265;DHT22;24062;47.480;8.768;2022-11-18T08:29:00;10.30;92.60
38265;DHT22;24062;47.480;8.768;2022-11-18T08:31:28;10.40;92.80
38265;DHT22;24062;47.480;8.768;2022-11-18T08:33:56;10.50;92.60
38265;DHT22;24062;47.480;8.768;2022-11-18T08:36:26;10.60;92.70
38265;DHT22;24062;47.480;8.768;2022-11-18T08:38:54;10.80;93.00
38265;DHT22;24062;47.480;8.768;2022-11-18T08:41:26;11.00;92.80
38265;DHT22;24062;47.480;8.768;2022-11-18T08:43:56;11.20;92.80
38265;DHT22;24062;47.480;8.768;2022-11-18T08:46:23;11.30;92.60
38265;DHT22;24062;47.480;8.768;2022-11-18T08:48:50;11.40;92.60
38265;DHT22;24062;47.480;8.768;2022-11-18T08:51:17;11.30;92.30
38265;DHT22;24062;47.480;8.768;2022-11-18T08:53:44;11.30;92.10
38265;DHT22;24062;47.480;8.768;2022-11-18T08:56:14;11.30;92.10
38265;DHT22;24062;47.480;8.768;2022-11-18T08:58:41;11.20;92.00
38265;DHT22;24062;47.480;8.768;2022-11-18T09:01:10;11.20;91.80
38265;DHT22;24062;47.480;8.768;2022-11-18T09:03:37;11.00;91.60
38265;DHT22;24062;47.480;8.768;2022-11-18T09:06:05;10.90;91.70
38265;DHT22;24062;47.480;8.768;2022-11-18T09:08:32;10.80;91.90
38265;DHT22;24062;47.480;8.768;2022-11-18T09:11:03;10.90;92.40
38265;DHT22;24062;47.480;8.768;2022-11-18T09:13:30;11.00;92.70
38265;DHT22;24062;47.480;8.768;2022-11-18T09:15:57;11.10;92.70
38265;DHT22;24062;47.480;8.768;2022-11-18T09:18:25;11.10;92.60
38265;DHT22;24062;47.480;8.768;2022-11-18T09:20:55;11.10;92.50
38265;DHT22;24062;47.480;8.768;2022-11-18T09:23:22;11.20;92.60
38265;DHT22;24062;47.480;8.768;2022-11-18T09:25:56;11.20;92.70
38265;DHT22;24062;47.480;8.768;2022-11-18T09:28:23;11.20;92.60
38265;DHT22;24062;47.480;8.768;2022-11-18T09:30:50;11.30;92.90
38265;DHT22;24062;47.480;8.768;2022-11-18T09:33:17;11.30;92.70
38265;DHT22;24062;47.480;8.768;2022-11-18T09:35:45;11.40;92.60
38265;DHT22;24062;47.480;8.768;2022-11-18T09:38:12;11.50;92.90
38265;DHT22;24062;47.480;8.768;2022-11-18T09:40:45;11.60;92.30
38265;DHT22;24062;47.480;8.768;2022-11-18T09:43:20;11.70;92.50
38265;DHT22;24062;47.480;8.768;2022-11-18T09:45:55;11.80;92.10
38265;DHT22;24062;47.480;8.768;2022-11-18T09:48:24;11.70;92.20
38265;DHT22;24062;47.480;8.768;2022-11-18T09:51:13;11.70;92.00
38265;DHT22;24062;47.480;8.768;2022-11-18T09:53:41;11.70;92.10
38265;DHT22;24062;47.480;8.768;2022-11-18T09:56:14;11.80;92.30
38265;DHT22;24062;47.480;8.768;2022-11-18T09:58:42;12.00;92.30
38265;DHT22;24062;47.480;8.768;2022-11-18T10:01:12;12.10;92.40
38265;DHT22;24062;47.480;8.768;2022-11-18T10:03:43;12.10;92.00
38265;DHT22;24062;47.480;8.768;2022-11-18T10:06:19;12.10;91.80
38265;DHT22;24062;47.480;8.768;2022-11-18T10:09:00;11.90;91.30
38265;DHT22;24062;47.480;8.768;2022-11-18T10:11:34;11.90;91.60
38265;DHT22;24062;47.480;8.768;2022-11-18T10:14:13;11.90;91.90
38265;DHT22;24062;47.480;8.768;2022-11-18T10:16:48;11.90;91.80
38265;DHT22;24062;47.480;8.768;2022-11-18T10:19:25;12.10;92.20
38265;DHT22;24062;47.480;8.768;2022-11-18T10:22:03;12.30;92.10
38265;DHT22;24062;47.480;8.768;2022-11-18T10:24:38;12.40;92.20
38265;DHT22;24062;47.480;8.768;2022-11-18T10:27:10;12.30;91.60
38265;DHT22;24062;47.480;8.768;2022-11-18T10:29:37;12.40;91.70
38265;DHT22;24062;47.480;8.768;2022-11-18T10:32:06;12.60;92.20
38265;DHT22;24062;47.480;8.768;2022-11-18T10:34:34;12.70;91.70
38265;DHT22;24062;47.480;8.768;2022-11-18T10:37:23;12.80;91.70
38265;DHT22;24062;47.480;8.768;2022-11-18T10:39:52;12.60;91.00
38265;DHT22;24062;47.480;8.768;2022-11-18T10:42:26;12.60;91.10
38265;DHT22;24062;47.480;8.768;2022-11-18T10:44:54;12.60;91.30
38265;DHT22;24062;47.480;8.768;2022-11-18T10:47:27;12.60;91.50
38265;DHT22;24062;47.480;8.768;2022-11-18T10:49:57;12.70;91.20
38265;DHT22;24062;47.480;8.768;2022-11-18T10:52:26;12.90;91.50
38265;DHT22;24062;47.480;8.768;2022-11-18T10:55:20;13.10;91.70
38265;DHT22;24062;47.480;8.768;2022-11-18T10:57:50;13.50;91.80
38265;DHT22;24062;47.480;8.768;2022-11-18T11:00:48;13.90;91.50
38265;DHT22;24062;47.480;8.768;2022-11-18T11:03:27;13.90;90.60
38265;DHT22;24062;47.480;8.768;2022-11-18T11:06:26;13.70;90.10
38265;DHT22;24062;47.480;8.768;2022-11-18T11:09:07;13.40;90.50
38265;DHT22;24062;47.480;8.768;2022-11-18T11:11:36;13.40;90.70
38265;DHT22;24062;47.480;8.768;2022-11-18T11:14:20;13.40;90.00
38265;DHT22;24062;47.480;8.768;2022-11-18T11:16:56;13.40;90.30
38265;DHT22;24062;47.480;8.768;2022-11-18T11:19:25;13.30;89.70
38265;DHT22;24062;47.480;8.768;2022-11-18T11:21:56;13.10;88.50
38265;DHT22;24062;47.480;8.768;2022-11-18T11:24:25;12.70;88.50
38265;DHT22;24062;47.480;8.768;2022-11-18T11:27:03;12.50;88.70
38265;DHT22;24062;47.480;8.768;2022-11-18T11:30:04;12.20;88.70
38265;DHT22;24062;47.480;8.768;2022-11-18T11:32:54;11.90;90.00
38265;DHT22;24062;47.480;8.768;2022-11-18T11:35:26;11.70;90.00
38265;DHT22;24062;47.480;8.768;2022-11-18T11:37:58;11.60;89.40
38265;DHT22;24062;47.480;8.768;2022-11-18T11:40:33;11.40;90.50
38265;DHT22;24062;47.480;8.768;2022-11-18T11:43:21;11.40;90.40
38265;DHT22;24062;47.480;8.768;2022-11-18T11:46:03;11.40;90.70
38265;DHT22;24062;47.480;8.768;2022-11-18T11:48:40;11.30;90.20
38265;DHT22;24062;47.480;8.768;2022-11-18T11:51:17;11.40;91.00
38265;DHT22;24062;47.480;8.768;2022-11-18T11:54:15;11.50;90.60
38265;DHT22;24062;47.480;8.768;2022-11-18T11:56:48;11.40;90.80
38265;DHT22;24062;47.480;8.768;2022-11-18T11:59:23;11.50;91.00
38265;DHT22;24062;47.480;8.768;2022-11-18T12:02:06;11.50;91.20
38265;DHT22;24062;47.480;8.768;2022-11-18T12:04:42;11.70;91.20
38265;DHT22;24062;47.480;8.768;2022-11-18T12:07:15;11.70;90.90
38265;DHT22;24062;47.480;8.768;2022-11-18T12:09:56;12.00;91.30
38265;DHT22;24062;47.480;8.768;2022-11-18T12:12:33;12.20;91.20
38265;DHT22;24062;47.480;8.768;2022-11-18T12:15:14;12.30;90.80
38265;DHT22;24062;47.480;8.768;2022-11-18T12:17:48;12.20;90.10
38265;DHT22;24062;47.480;8.768;2022-11-18T12:20:38;12.30;91.40
38265;DHT22;24062;47.480;8.768;2022-11-18T12:23:10;12.60;91.10
38265;DHT22;24062;47.480;8.768;2022-11-18T12:26:01;12.50;90.30
38265;DHT22;24062;47.480;8.768;2022-11-18T12:28:32;12.50;90.60
38265;DHT22;24062;47.480;8.768;2022-11-18T12:31:31;12.40;90.10
38265;DHT22;24062;47.480;8.768;2022-11-18T12:34:01;12.00;90.20
38265;DHT22;24062;47.480;8.768;2022-11-18T12:36:31;11.80;90.30
38265;DHT22;24062;47.480;8.768;2022-11-18T12:39:44;11.60;89.90
38265;DHT22;24062;47.480;8.768;2022-11-18T12:41:53;11.40;90.10
38265;DHT22;24062;47.480;8.768;2022-11-18T12:44:39;11.40;90.50
38265;DHT22;24062;47.480;8.768;2022-11-18T12:47:07;11.60;91.10
38265;DHT22;24062;47.480;8.768;2022-11-18T12:52:58;12.50;92.00
38265;DHT22;24062;47.480;8.768;2022-11-18T12:55:31;13.00;91.30
38265;DHT22;24062;47.480;8.768;2022-11-18T12:57:58;13.30;91.10
38265;DHT22;24062;47.480;8.768;2022-11-18T13:00:32;13.60;91.60
38265;DHT22;24062;47.480;8.768;2022-11-18T13:03:25;13.60;90.10
38265;DHT22;24062;47.480;8.768;2022-11-18T13:06:03;13.20;88.30
38265;DHT22;24062;47.480;8.768;2022-11-18T13:08:31;13.00;89.10
38265;DHT22;24062;47.480;8.768;2022-11-18T13:11:08;12.90;89.60
38265;DHT22;24062;47.480;8.768;2022-11-18T13:13:53;12.80;90.00
38265;DHT22;24062;47.480;8.768;2022-11-18T13:16:42;13.00;92.00
38265;DHT22;24062;47.480;8.768;2022-11-18T13:19:27;14.10;96.70
38265;DHT22;24062;47.480;8.768;2022-11-18T13:21:54;15.30;97.40
38265;DHT22;24062;47.480;8.768;2022-11-18T13:24:43;15.60;92.80
38265;DHT22;24062;47.480;8.768;2022-11-18T13:27:20;15.20;90.50
38265;DHT22;24062;47.480;8.768;2022-11-18T13:29:54;14.90;90.20
38265;DHT22;24062;47.480;8.768;2022-11-18T13:32:26;14.80;90.40
38265;DHT22;24062;47.480;8.768;2022-11-18T13:34:54;14.30;89.10
38265;DHT22;24062;47.480;8.768;2022-11-18T13:37:23;13.80;88.70
38265;DHT22;24062;47.480;8.768;2022-11-18T13:39:50;12.80;85.40
38265;DHT22;24062;47.480;8.768;2022-11-18T13:42:20;12.30;88.90
38265;DHT22;24062;47.480;8.768;2022-11-18T13:44:52;11.90;89.70
38265;DHT22;24062;47.480;8.768;2022-11-18T13:47:27;11.30;89.80
38265;DHT22;24062;47.480;8.768;2022-11-18T13:50:03;11.00;90.20
38265;DHT22;24062;47.480;8.768;2022-11-18T13:52:35;10.70;90.90
38265;DHT22;24062;47.480;8.768;2022-11-18T13:55:07;10.70;91.40
38265;DHT22;24062;47.480;8.768;2022-11-18T13:57:35;10.50;91.90
38265;DHT22;24062;47.480;8.768;2022-11-18T14:00:05;10.50;91.90
38265;DHT22;24062;47.480;8.768;2022-11-18T14:02:39;10.40;91.80
38265;DHT22;24062;47.480;8.768;2022-11-18T14:05:17;10.40;92.30
38265;DHT22;24062;47.480;8.768;2022-11-18T14:07:54;10.40;92.10
38265;DHT22;24062;47.480;8.768;2022-11-18T14:10:29;10.30;91.10
38265;DHT22;24062;47.480;8.768;2022-11-18T14:12:57;10.20;91.40
38265;DHT22;24062;47.480;8.768;2022-11-18T14:15:33;10.00;91.10
38265;DHT22;24062;47.480;8.768;2022-11-18T14:18:02;9.80;91.00
38265;DHT22;24062;47.480;8.768;2022-11-18T14:20:49;9.60;91.60
38265;DHT22;24062;47.480;8.768;2022-11-18T14:23:16;9.50;91.60
38265;DHT22;24062;47.480;8.768;2022-11-18T14:25:44;9.40;92.00
38265;DHT22;24062;47.480;8.768;2022-11-18T14:28:12;9.50;92.20
38265;DHT22;24062;47.480;8.768;2022-11-18T14:30:56;9.80;92.10
38265;DHT22;24062;47.480;8.768;2022-11-18T14:33:25;9.80;92.10
38265;DHT22;24062;47.480;8.768;2022-11-18T14:35:55;9.90;91.80
38265;DHT22;24062;47.480;8.768;2022-11-18T14:38:27;10.00;91.60
38265;DHT22;24062;47.480;8.768;2022-11-18T14:40:57;10.10;91.60
38265;DHT22;24062;47.480;8.768;2022-11-18T14:43:24;10.10;91.20
38265;DHT22;24062;47.480;8.768;2022-11-18T14:45:52;10.10;91.00
38265;DHT22;24062;47.480;8.768;2022-11-18T14:48:21;10.10;91.60
38265;DHT22;24062;47.480;8.768;2022-11-18T14:50:50;10.20;91.90
38265;DHT22;24062;47.480;8.768;2022-11-18T14:53:17;10.20;91.80
38265;DHT22;24062;47.480;8.768;2022-11-18T14:55:46;10.40;92.00
38265;DHT22;24062;47.480;8.768;2022-11-18T14:58:14;10.50;92.00
38265;DHT22;24062;47.480;8.768;2022-11-18T15:00:42;10.60;91.70
38265;DHT22;24062;47.480;8.768;2022-11-18T15:03:09;10.60;91.40
38265;DHT22;24062;47.480;8.768;2022-11-18T15:05:36;10.60;91.40
38265;DHT22;24062;47.480;8.768;2022-11-18T15:08:05;10.50;91.10
38265;DHT22;24062;47.480;8.768;2022-11-18T15:10:32;10.40;90.60
38265;DHT22;24062;47.480;8.768;2022-11-18T15:12:59;10.20;90.50
38265;DHT22;24062;47.480;8.768;2022-11-18T15:15:26;10.10;90.60
38265;DHT22;24062;47.480;8.768;2022-11-18T15:17:53;9.90;91.00
38265;DHT22;24062;47.480;8.768;2022-11-18T15:20:21;9.80;91.20
38265;DHT22;24062;47.480;8.768;2022-11-18T15:22:48;9.60;91.30
38265;DHT22;24062;47.480;8.768;2022-11-18T15:25:16;9.60;91.50
38265;DHT22;24062;47.480;8.768;2022-11-18T15:27:43;9.50;91.50
38265;DHT22;24062;47.480;8.768;2022-11-18T15:30:11;9.50;91.20
38265;DHT22;24062;47.480;8.768;2022-11-18T15:32:40;9.40;91.20
38265;DHT22;24062;47.480;8.768;2022-11-18T15:35:10;9.30;91.00
38265;DHT22;24062;47.480;8.768;2022-11-18T15:37:37;9.10;90.90
38265;DHT22;24062;47.480;8.768;2022-11-18T15:40:04;9.10;91.00
38265;DHT22;24062;47.480;8.768;2022-11-18T15:42:33;9.00;91.00
38265;DHT22;24062;47.480;8.768;2022-11-18T15:45:00;8.90;90.90
38265;DHT22;24062;47.480;8.768;2022-11-18T15:47:27;8.80;90.90
38265;DHT22;24062;47.480;8.768;2022-11-18T15:49:54;8.80;91.00
38265;DHT22;24062;47.480;8.768;2022-11-18T15:52:20;8.70;90.90
38265;DHT22;24062;47.480;8.768;2022-11-18T15:54:47;8.60;90.90
38265;DHT22;24062;47.480;8.768;2022-11-18T15:57:14;8.50;90.90
38265;DHT22;24062;47.480;8.768;2022-11-18T15:59:42;8.50;90.90
38265;DHT22;24062;47.480;8.768;2022-11-18T16:02:10;8.50;90.90
38265;DHT22;24062;47.480;8.768;2022-11-18T16:04:37;8.40;90.80